createdAt,value
2017-08-07T00:01:18.585Z,102031
2017-08-07T00:03:46.784Z,102034
2017-08-07T00:06:14.930Z,102034
2017-08-07T00:08:43.098Z,102031
2017-08-07T00:11:11.293Z,102024
2017-08-07T00:13:39.453Z,102025
2017-08-07T00:16:07.601Z,102018
2017-08-07T00:18:36.573Z,102025
2017-08-07T00:21:04.721Z,102019
2017-08-07T00:23:32.866Z,102026
2017-08-07T00:26:01.041Z,102028
2017-08-07T00:28:29.192Z,102032
2017-08-07T00:30:58.108Z,102022
2017-08-07T00:33:26.298Z,102019
2017-08-07T00:35:54.467Z,102022
2017-08-07T00:38:22.611Z,102017
2017-08-07T00:40:51.558Z,102026
2017-08-07T00:43:19.723Z,102023
2017-08-07T00:45:47.891Z,102019
2017-08-07T00:48:16.077Z,102023
2017-08-07T00:50:44.226Z,102022
2017-08-07T00:53:12.369Z,102028
2017-08-07T00:55:41.726Z,102020
2017-08-07T00:58:09.880Z,102017
2017-08-07T01:00:38.054Z,102020
2017-08-07T01:03:06.227Z,102016
2017-08-07T01:05:34.395Z,102015
2017-08-07T01:08:02.539Z,102014
2017-08-07T01:10:31.500Z,102016
2017-08-07T01:12:59.680Z,102014
2017-08-07T01:15:27.849Z,102014
2017-08-07T01:17:56.043Z,102011
2017-08-07T01:20:24.202Z,102006
2017-08-07T01:22:52.342Z,102009
2017-08-07T01:25:20.522Z,102008
2017-08-07T01:27:48.702Z,102008
2017-08-07T01:30:16.867Z,102006
2017-08-07T01:32:45.063Z,102003
2017-08-07T01:35:13.208Z,102008
2017-08-07T01:37:41.380Z,102010
2017-08-07T01:40:09.578Z,102002
2017-08-07T01:42:37.745Z,102011
2017-08-07T01:45:05.890Z,102013
2017-08-07T01:47:34.845Z,102000
2017-08-07T01:50:03.025Z,102000
2017-08-07T01:52:31.171Z,102002
2017-08-07T01:54:59.339Z,101994
2017-08-07T01:57:27.501Z,102004
2017-08-07T01:59:55.668Z,101990
2017-08-07T02:02:23.873Z,101990
2017-08-07T02:04:52.018Z,101991
2017-08-07T02:07:20.181Z,101993
2017-08-07T02:09:49.123Z,101993
2017-08-07T02:12:17.284Z,101986
2017-08-07T02:14:45.427Z,101980
2017-08-07T02:17:13.598Z,101982
2017-08-07T02:19:41.766Z,101988
2017-08-07T02:22:10.700Z,101979
2017-08-07T02:24:38.883Z,101984
2017-08-07T02:27:07.049Z,101987
2017-08-07T02:29:35.213Z,101983
2017-08-07T02:32:03.392Z,101980
2017-08-07T02:34:31.539Z,101993
2017-08-07T02:36:59.682Z,101976
2017-08-07T02:39:27.873Z,101981
2017-08-07T02:41:56.030Z,101976
2017-08-07T02:44:24.179Z,101986
2017-08-07T02:46:52.355Z,101979
2017-08-07T02:49:20.500Z,101974
2017-08-07T02:51:48.664Z,101974
2017-08-07T02:54:16.838Z,101982
2017-08-07T02:56:45.006Z,101970
2017-08-07T02:59:14.192Z,101970
2017-08-07T03:01:43.958Z,101963
2017-08-07T03:04:12.126Z,101961
2017-08-07T03:06:40.287Z,101961
2017-08-07T03:09:08.480Z,101962
2017-08-07T03:11:37.483Z,101953
2017-08-07T03:14:05.645Z,101955
2017-08-07T03:16:33.836Z,101949
2017-08-07T03:19:01.976Z,101954
2017-08-07T03:21:30.142Z,101955
2017-08-07T03:23:58.314Z,101950
2017-08-07T03:26:26.487Z,101950
2017-08-07T03:28:54.642Z,101953
2017-08-07T03:31:23.597Z,101939
2017-08-07T03:33:51.757Z,101951
2017-08-07T03:36:19.938Z,101942
2017-08-07T03:38:48.121Z,101945
2017-08-07T03:41:16.266Z,101947
2017-08-07T03:43:44.427Z,101949
2017-08-07T03:46:12.611Z,101946
2017-08-07T03:48:40.773Z,101942
2017-08-07T03:51:08.922Z,101937
2017-08-07T03:53:37.094Z,101942
2017-08-07T03:56:05.262Z,101935
2017-08-07T03:58:33.431Z,101932
2017-08-07T04:01:01.616Z,101927
2017-08-07T04:03:29.761Z,101936
2017-08-07T04:05:57.924Z,101923
2017-08-07T04:08:26.091Z,101928
2017-08-07T04:10:54.234Z,101934
2017-08-07T04:13:22.386Z,101934
2017-08-07T04:15:50.590Z,101939
2017-08-07T04:18:18.753Z,101930
2017-08-07T04:20:47.687Z,101928
2017-08-07T04:23:15.878Z,101929
2017-08-07T04:25:44.026Z,101933
2017-08-07T04:28:12.194Z,101922
2017-08-07T04:30:40.393Z,101921
2017-08-07T04:33:08.540Z,101926
2017-08-07T04:35:36.706Z,101922
2017-08-07T04:38:04.906Z,101925
2017-08-07T04:40:33.061Z,101922
2017-08-07T04:43:01.211Z,101919
2017-08-07T04:45:30.172Z,101925
2017-08-07T04:47:58.319Z,101929
2017-08-07T04:50:26.461Z,101930
2017-08-07T04:52:55.402Z,101928
2017-08-07T04:55:23.549Z,101923
2017-08-07T04:57:51.729Z,101917
2017-08-07T05:00:19.922Z,101932
2017-08-07T05:02:48.073Z,101922
2017-08-07T05:05:16.221Z,101923
2017-08-07T05:07:45.189Z,101925
2017-08-07T05:10:13.361Z,101923
2017-08-07T05:12:41.507Z,101927
2017-08-07T05:15:09.683Z,101920
2017-08-07T05:17:38.854Z,101917
2017-08-07T05:20:07.001Z,101921
2017-08-07T05:22:35.961Z,101922
2017-08-07T05:25:04.107Z,101929
2017-08-07T05:27:32.265Z,101933
2017-08-07T05:30:00.465Z,101919
2017-08-07T05:32:28.619Z,101917
2017-08-07T05:34:56.769Z,101919
2017-08-07T05:37:25.729Z,101917
2017-08-07T05:39:53.882Z,101922
2017-08-07T05:42:22.050Z,101921
2017-08-07T05:44:50.218Z,101926
2017-08-07T05:47:18.361Z,101924
2017-08-07T05:49:47.294Z,101917
2017-08-07T05:52:15.466Z,101918
2017-08-07T05:54:43.616Z,101916
2017-08-07T05:57:11.763Z,101914
2017-08-07T05:59:39.942Z,101917
2017-08-07T06:02:08.877Z,101919
2017-08-07T06:04:37.022Z,101917
2017-08-07T06:07:05.976Z,101917
2017-08-07T06:09:34.145Z,101913
2017-08-07T06:12:02.294Z,101906
2017-08-07T06:14:30.482Z,101916
2017-08-07T06:16:58.631Z,101927
2017-08-07T06:19:26.784Z,101923
2017-08-07T06:21:55.749Z,101914
2017-08-07T06:24:23.902Z,101912
2017-08-07T06:26:52.069Z,101906
2017-08-07T06:29:20.271Z,101903
2017-08-07T06:31:48.443Z,101909
2017-08-07T06:34:16.592Z,101914
2017-08-07T06:36:44.786Z,101909
2017-08-07T06:39:12.937Z,101914
2017-08-07T06:41:41.103Z,101916
2017-08-07T06:44:09.274Z,101909
2017-08-07T06:46:37.417Z,101914
2017-08-07T06:49:06.330Z,101905
2017-08-07T06:51:34.528Z,101900
2017-08-07T06:54:02.696Z,101900
2017-08-07T06:56:30.866Z,101896
2017-08-07T06:58:59.069Z,101901
2017-08-07T07:01:27.234Z,101892
2017-08-07T07:03:55.382Z,101893
2017-08-07T07:06:23.557Z,101887
2017-08-07T07:08:51.724Z,101897
2017-08-07T07:11:19.870Z,101896
2017-08-07T07:13:48.832Z,101891
2017-08-07T07:16:16.976Z,101883
2017-08-07T07:18:45.122Z,101892
2017-08-07T07:21:14.063Z,101889
2017-08-07T07:23:42.225Z,101882
2017-08-07T07:26:10.385Z,101884
2017-08-07T07:28:38.576Z,101885
2017-08-07T07:31:06.742Z,101888
2017-08-07T07:33:34.886Z,101888
2017-08-07T07:36:03.840Z,101886
2017-08-07T07:38:32.005Z,101885
2017-08-07T07:41:00.150Z,101898
2017-08-07T07:43:28.345Z,101884
2017-08-07T07:45:56.495Z,101878
2017-08-07T07:48:24.644Z,101884
2017-08-07T07:50:53.585Z,101873
2017-08-07T07:53:21.752Z,101869
2017-08-07T07:55:49.898Z,101876
2017-08-07T07:58:18.834Z,101881
2017-08-07T08:00:46.978Z,101872
2017-08-07T08:03:15.123Z,101862
2017-08-07T08:05:44.070Z,101872
2017-08-07T08:08:12.244Z,101869
2017-08-07T08:10:40.400Z,101869
2017-08-07T08:13:08.593Z,101862
2017-08-07T08:15:36.768Z,101857
2017-08-07T08:18:05.234Z,101860
2017-08-07T08:20:33.428Z,101855
2017-08-07T08:23:01.580Z,101857
2017-08-07T08:25:29.758Z,101854
2017-08-07T08:27:57.945Z,101851
2017-08-07T08:30:26.099Z,101846
2017-08-07T08:32:54.261Z,101844
2017-08-07T08:35:22.442Z,101855
2017-08-07T08:37:50.591Z,101849
2017-08-07T08:40:19.532Z,101846
2017-08-07T08:42:47.733Z,101864
2017-08-07T08:45:15.888Z,101863
2017-08-07T08:47:44.050Z,101851
2017-08-07T08:50:12.221Z,101855
2017-08-07T08:52:40.375Z,101853
2017-08-07T08:55:08.531Z,101853
2017-08-07T08:57:36.703Z,101849
2017-08-07T09:00:04.850Z,101848
2017-08-07T09:02:33.014Z,101847
2017-08-07T09:05:01.193Z,101851
2017-08-07T09:07:29.335Z,101853
2017-08-07T09:09:57.493Z,101854
2017-08-07T09:12:26.435Z,101853
2017-08-07T09:14:54.574Z,101851
2017-08-07T09:17:22.740Z,101851
2017-08-07T09:19:50.930Z,101844
2017-08-07T09:22:19.105Z,101850
2017-08-07T09:24:47.261Z,101854
2017-08-07T09:27:15.521Z,101860
2017-08-07T09:29:43.690Z,101852
2017-08-07T09:32:11.841Z,101837
2017-08-07T09:34:40.022Z,101841
2017-08-07T09:37:08.179Z,101841
2017-08-07T09:39:36.322Z,101849
2017-08-07T09:42:04.510Z,101846
2017-08-07T09:44:32.654Z,101846
2017-08-07T09:47:01.563Z,101839
2017-08-07T09:49:29.735Z,101830
2017-08-07T09:51:57.902Z,101833
2017-08-07T09:54:26.061Z,101847
2017-08-07T09:56:55.012Z,101828
2017-08-07T09:59:23.173Z,101832
2017-08-07T10:01:51.339Z,101829
2017-08-07T10:04:19.515Z,101829
2017-08-07T10:06:47.658Z,101830
2017-08-07T10:09:16.590Z,101827
2017-08-07T10:11:44.762Z,101825
2017-08-07T10:14:12.909Z,101824
2017-08-07T10:16:41.069Z,101826
2017-08-07T10:19:10.021Z,101824
2017-08-07T10:21:38.161Z,101818
2017-08-07T10:24:06.324Z,101829
2017-08-07T10:26:34.513Z,101806
2017-08-07T10:29:02.673Z,101815
2017-08-07T10:31:30.813Z,101815
2017-08-07T10:33:59.001Z,101817
2017-08-07T10:36:27.906Z,101806
2017-08-07T10:38:56.814Z,101823
2017-08-07T10:41:24.983Z,101811
2017-08-07T10:43:53.149Z,101805
2017-08-07T10:46:21.308Z,101823
2017-08-07T10:48:50.262Z,101821
2017-08-07T10:51:18.423Z,101816
2017-08-07T10:53:46.577Z,101819
2017-08-07T10:56:14.753Z,101820
2017-08-07T10:58:42.918Z,101822
2017-08-07T11:01:11.065Z,101807
2017-08-07T11:03:39.262Z,101809
2017-08-07T11:06:07.410Z,101793
2017-08-07T11:08:35.554Z,101805
2017-08-07T11:11:03.741Z,101817
2017-08-07T11:13:31.889Z,101788
2017-08-07T11:16:00.030Z,101795
2017-08-07T11:18:28.987Z,101797
2017-08-07T11:20:57.150Z,101786
2017-08-07T11:23:25.291Z,101781
2017-08-07T11:25:53.455Z,101793
2017-08-07T11:28:21.608Z,101804
2017-08-07T11:30:50.521Z,101790
2017-08-07T11:33:18.703Z,101781
2017-08-07T11:35:46.865Z,101779
2017-08-07T11:38:15.028Z,101772
2017-08-07T11:40:43.970Z,101786
2017-08-07T11:43:12.133Z,101788
2017-08-07T11:45:40.295Z,101782
2017-08-07T11:48:08.462Z,101794
2017-08-07T11:50:36.603Z,101773
2017-08-07T11:53:04.764Z,101781
2017-08-07T11:55:32.937Z,101775
2017-08-07T11:58:01.108Z,101782
2017-08-07T12:00:29.254Z,101788
2017-08-07T12:02:57.452Z,101775
2017-08-07T12:05:25.621Z,101769
2017-08-07T12:07:53.782Z,101771
2017-08-07T12:10:22.389Z,101769
2017-08-07T12:12:50.559Z,101764
2017-08-07T12:15:18.711Z,101768
2017-08-07T12:17:46.904Z,101764
2017-08-07T12:20:15.055Z,101773
2017-08-07T12:22:43.198Z,101769
2017-08-07T12:25:11.398Z,101775
2017-08-07T12:27:39.544Z,101758
2017-08-07T12:30:08.454Z,101753
2017-08-07T12:32:36.639Z,101755
2017-08-07T12:35:04.798Z,101762
2017-08-07T12:37:32.950Z,101762
2017-08-07T12:40:01.907Z,101746
2017-08-07T12:42:30.058Z,101744
2017-08-07T12:44:58.229Z,101743
2017-08-07T12:47:26.421Z,101747
2017-08-07T12:49:54.591Z,101746
2017-08-07T12:52:22.748Z,101740
2017-08-07T12:54:50.928Z,101743
2017-08-07T12:57:19.092Z,101746
2017-08-07T12:59:47.264Z,101742
2017-08-07T13:02:15.463Z,101727
2017-08-07T13:04:43.635Z,101721
2017-08-07T13:07:11.801Z,101723
2017-08-07T13:09:39.981Z,101729
2017-08-07T13:12:08.132Z,101733
2017-08-07T13:14:36.288Z,101722
2017-08-07T13:17:04.489Z,101725
2017-08-07T13:19:32.669Z,101730
2017-08-07T13:22:00.828Z,101729
2017-08-07T13:24:29.011Z,101727
2017-08-07T13:26:57.181Z,101717
2017-08-07T13:29:25.356Z,101712
2017-08-07T13:31:53.564Z,101710
2017-08-07T13:34:21.734Z,101726
2017-08-07T13:36:49.911Z,101721
2017-08-07T13:39:18.115Z,101725
2017-08-07T13:41:46.290Z,101722
2017-08-07T13:44:14.451Z,101715
2017-08-07T13:46:42.631Z,101708
2017-08-07T13:49:10.791Z,101708
2017-08-07T13:51:38.938Z,101709
2017-08-07T13:54:07.145Z,101705
2017-08-07T13:56:35.303Z,101705
2017-08-07T13:59:03.459Z,101694
2017-08-07T14:01:31.656Z,101707
2017-08-07T14:03:59.826Z,101703
2017-08-07T14:06:28.000Z,101704
2017-08-07T14:08:56.208Z,101702
2017-08-07T14:11:24.354Z,101699
2017-08-07T14:13:52.507Z,101698
2017-08-07T14:16:20.701Z,101686
2017-08-07T14:18:48.850Z,101691
2017-08-07T14:21:17.000Z,101681
2017-08-07T14:23:45.940Z,101679
2017-08-07T14:26:14.109Z,101675
2017-08-07T14:28:42.259Z,101673
2017-08-07T14:31:10.437Z,101677
2017-08-07T14:33:38.609Z,101679
2017-08-07T14:36:06.775Z,101667
2017-08-07T14:38:35.723Z,101664
2017-08-07T14:41:03.875Z,101669
2017-08-07T14:43:32.031Z,101656
2017-08-07T14:46:00.229Z,101660
2017-08-07T14:48:28.401Z,101662
2017-08-07T14:50:56.566Z,101665
2017-08-07T14:53:24.742Z,101660
2017-08-07T14:55:52.916Z,101661
2017-08-07T14:58:21.077Z,101660
2017-08-07T15:00:49.253Z,101657
2017-08-07T15:03:17.426Z,101657
2017-08-07T15:05:45.592Z,101648
2017-08-07T15:08:13.785Z,101651
2017-08-07T15:10:41.953Z,101648
2017-08-07T15:13:10.208Z,101650
2017-08-07T15:15:38.387Z,101641
2017-08-07T15:18:06.535Z,101643
2017-08-07T15:20:34.705Z,101644
2017-08-07T15:23:02.886Z,101649
2017-08-07T15:25:31.031Z,101633
2017-08-07T15:27:59.950Z,101642
2017-08-07T15:30:28.142Z,101629
2017-08-07T15:32:56.325Z,101627
2017-08-07T15:35:24.481Z,101634
2017-08-07T15:37:52.673Z,101632
2017-08-07T15:40:20.822Z,101624
2017-08-07T15:42:49.009Z,101627
2017-08-07T15:45:17.200Z,101612
2017-08-07T15:47:45.374Z,101624
2017-08-07T15:50:13.524Z,101627
2017-08-07T15:52:41.705Z,101639
2017-08-07T15:55:09.855Z,101627
2017-08-07T15:57:38.025Z,101638
2017-08-07T16:00:06.974Z,101626
2017-08-07T16:02:35.134Z,101621
2017-08-07T16:05:03.282Z,101616
2017-08-07T16:07:31.465Z,101624
2017-08-07T16:09:59.642Z,101607
2017-08-07T16:12:27.791Z,101627
2017-08-07T16:14:55.977Z,101633
2017-08-07T16:17:24.145Z,101630
2017-08-07T16:19:52.305Z,101616
2017-08-07T16:22:20.502Z,101622
2017-08-07T16:24:48.658Z,101620
2017-08-07T16:27:16.807Z,101614
2017-08-07T16:30:01.828Z,101620
2017-08-07T16:32:29.998Z,101605
2017-08-07T16:34:58.151Z,101616
2017-08-07T16:37:26.354Z,101620
2017-08-07T16:39:54.510Z,101614
2017-08-07T16:42:22.666Z,101616
2017-08-07T16:44:51.630Z,101613
2017-08-07T16:47:19.807Z,101615
2017-08-07T16:49:47.971Z,101609
2017-08-07T16:52:16.171Z,101615
2017-08-07T16:54:44.324Z,101607
2017-08-07T16:57:12.500Z,101605
2017-08-07T16:59:40.703Z,101605
2017-08-07T17:02:09.653Z,101601
2017-08-07T17:04:37.803Z,101593
2017-08-07T17:07:06.006Z,101601
2017-08-07T17:09:34.192Z,101599
2017-08-07T17:12:02.371Z,101601
2017-08-07T17:14:30.547Z,101602
2017-08-07T17:16:58.709Z,101602
2017-08-07T17:19:26.878Z,101601
2017-08-07T17:21:55.057Z,101599
2017-08-07T17:24:23.207Z,101593
2017-08-07T17:26:51.374Z,101589
2017-08-07T17:29:19.569Z,101597
2017-08-07T17:31:47.737Z,101597
2017-08-07T17:34:15.889Z,101600
2017-08-07T17:36:44.147Z,101585
2017-08-07T17:39:13.104Z,101589
2017-08-07T17:41:41.286Z,101584
2017-08-07T17:44:09.504Z,101593
2017-08-07T17:46:37.656Z,101590
2017-08-07T17:49:05.865Z,101586
2017-08-07T17:51:34.063Z,101587
2017-08-07T17:54:02.229Z,101594
2017-08-07T17:56:30.408Z,101585
2017-08-07T17:58:58.663Z,101587
2017-08-07T18:01:26.812Z,101582
2017-08-07T18:03:55.780Z,101583
2017-08-07T18:06:23.981Z,101576
2017-08-07T18:08:52.905Z,101569
2017-08-07T18:11:21.092Z,101580
2017-08-07T18:13:49.266Z,101573
2017-08-07T18:16:17.424Z,101569
2017-08-07T18:18:45.570Z,101577
2017-08-07T18:21:14.533Z,101575
2017-08-07T18:23:42.691Z,101576
2017-08-07T18:26:10.847Z,101578
2017-08-07T18:28:39.027Z,101584
2017-08-07T18:31:07.202Z,101582
2017-08-07T18:33:35.382Z,101577
2017-08-07T18:36:03.585Z,101573
2017-08-07T18:38:31.746Z,101587
2017-08-07T18:40:59.930Z,101575
2017-08-07T18:43:28.107Z,101574
2017-08-07T18:45:56.262Z,101584
2017-08-07T18:48:24.424Z,101589
2017-08-07T18:50:52.612Z,101587
2017-08-07T18:53:20.893Z,101592
2017-08-07T18:55:49.048Z,101590
2017-08-07T18:58:17.226Z,101581
2017-08-07T19:00:45.468Z,101594
2017-08-07T19:03:14.410Z,101594
2017-08-07T19:05:42.588Z,101589
2017-08-07T19:08:10.743Z,101589
2017-08-07T19:10:39.113Z,101590
2017-08-07T19:13:07.318Z,101592
2017-08-07T19:15:35.476Z,101593
2017-08-07T19:18:03.662Z,101596
2017-08-07T19:20:31.857Z,101592
2017-08-07T19:23:00.805Z,101594
2017-08-07T19:25:28.962Z,101590
2017-08-07T19:27:57.157Z,101599
2017-08-07T19:30:25.312Z,101591
2017-08-07T19:32:53.487Z,101590
2017-08-07T19:35:21.686Z,101598
2017-08-07T19:37:49.854Z,101580
2017-08-07T19:40:18.013Z,101589
2017-08-07T19:42:46.213Z,101592
2017-08-07T19:45:14.475Z,101588
2017-08-07T19:47:42.644Z,101585
2017-08-07T19:50:10.831Z,101583
2017-08-07T19:52:39.002Z,101585
2017-08-07T19:55:07.160Z,101576
2017-08-07T19:57:35.340Z,101584
2017-08-07T20:00:03.495Z,101578
2017-08-07T20:02:31.670Z,101580
2017-08-07T20:04:59.869Z,101578
2017-08-07T20:07:28.026Z,101576
2017-08-07T20:09:56.210Z,101586
2017-08-07T20:12:24.391Z,101582
2017-08-07T20:14:52.564Z,101578
2017-08-07T20:17:20.716Z,101575
2017-08-07T20:19:48.915Z,101576
2017-08-07T20:22:17.064Z,101579
2017-08-07T20:24:45.237Z,101578
2017-08-07T20:27:13.435Z,101584
2017-08-07T20:29:41.603Z,101576
2017-08-07T20:32:09.760Z,101582
2017-08-07T20:34:37.940Z,101576
2017-08-07T20:37:06.086Z,101580
2017-08-07T20:39:35.006Z,101578
2017-08-07T20:42:03.198Z,101579
2017-08-07T20:44:31.354Z,101576
2017-08-07T20:46:59.502Z,101568
2017-08-07T20:49:28.445Z,101580
2017-08-07T20:51:56.617Z,101572
2017-08-07T20:54:24.771Z,101575
2017-08-07T20:56:52.954Z,101574
2017-08-07T20:59:21.099Z,101573
2017-08-07T21:01:50.018Z,101568
2017-08-07T21:04:18.191Z,101575
2017-08-07T21:06:46.362Z,101570
2017-08-07T21:09:14.512Z,101572
2017-08-07T21:11:43.461Z,101576
2017-08-07T21:14:11.623Z,101570
2017-08-07T21:16:39.797Z,101575
2017-08-07T21:19:07.988Z,101573
2017-08-07T21:21:36.149Z,101573
2017-08-07T21:24:04.298Z,101565
2017-08-07T21:26:32.472Z,101564
2017-08-07T21:29:00.641Z,101568
2017-08-07T21:31:28.788Z,101567
2017-08-07T21:33:57.749Z,101570
2017-08-07T21:36:25.909Z,101582
2017-08-07T21:38:54.051Z,101578
2017-08-07T21:41:22.388Z,101579
2017-08-07T21:43:50.550Z,101579
2017-08-07T21:46:18.715Z,101583
2017-08-07T21:48:46.910Z,101573
2017-08-07T21:51:15.077Z,101577
2017-08-07T21:53:43.222Z,101568
2017-08-07T21:56:11.413Z,101571
2017-08-07T21:58:39.559Z,101572
2017-08-07T22:01:07.734Z,101572
2017-08-07T22:03:35.932Z,101571
2017-08-07T22:06:04.098Z,101568
2017-08-07T22:08:32.242Z,101562
2017-08-07T22:11:01.196Z,101571
2017-08-07T22:13:29.345Z,101563
2017-08-07T22:15:57.509Z,101569
2017-08-07T22:18:25.707Z,101556
2017-08-07T22:20:53.874Z,101559
2017-08-07T22:23:22.023Z,101558
2017-08-07T22:25:50.205Z,101555
2017-08-07T22:28:18.350Z,101542
2017-08-07T22:30:47.290Z,101544
2017-08-07T22:33:15.467Z,101540
2017-08-07T22:35:43.635Z,101541
2017-08-07T22:38:11.810Z,101535
2017-08-07T22:40:40.004Z,101539
2017-08-07T22:43:08.166Z,101537
2017-08-07T22:45:36.329Z,101536
2017-08-07T22:48:04.526Z,101538
2017-08-07T22:50:32.687Z,101537
2017-08-07T22:53:00.858Z,101534
2017-08-07T22:55:29.048Z,101527
2017-08-07T22:57:57.217Z,101524
2017-08-07T23:00:25.367Z,101530
2017-08-07T23:02:53.538Z,101524
2017-08-07T23:05:21.699Z,101525
2017-08-07T23:07:49.864Z,101521
2017-08-07T23:10:18.820Z,101529
2017-08-07T23:12:46.992Z,101522
2017-08-07T23:15:15.135Z,101525
2017-08-07T23:17:43.331Z,101522
2017-08-07T23:20:11.500Z,101522
2017-08-07T23:22:39.665Z,101525
2017-08-07T23:25:07.843Z,101523
2017-08-07T23:27:36.010Z,101518
2017-08-07T23:30:04.177Z,101516
2017-08-07T23:32:32.360Z,101518
2017-08-07T23:35:00.524Z,101522
2017-08-07T23:37:28.705Z,101509
2017-08-07T23:39:56.901Z,101516
2017-08-07T23:42:25.062Z,101506
2017-08-07T23:44:53.220Z,101511
2017-08-07T23:47:21.417Z,101508
2017-08-07T23:49:49.566Z,101506
2017-08-07T23:52:17.718Z,101505
2017-08-07T23:54:46.666Z,101497
2017-08-07T23:57:14.832Z,101500
2017-08-07T23:59:42.998Z,101503
